Time;durP1;ratioP1;P1;durP2;ratioP2;P2;SDS_P1;SDS_P2;PMS_P1;PMS_P2;Temp;Humidity;BMP_temperature;BMP_pressure;BME280_temperature;BME280_humidity;BME280_pressure;Samples;Min_cycle;Max_cycle;Signal;HPM_P1;HPM_P2
2023/03/10 00:02:17;;;;;;;2.00;1.45;;;12.00;95.90;;;;;;5006268;28;20564;-68
2023/03/10 00:04:42;;;;;;;1.87;1.67;;;12.20;96.00;;;;;;5008662;28;20270;-68
2023/03/10 00:07:08;;;;;;;1.87;1.50;;;12.00;96.20;;;;;;5008968;28;20187;-69
2023/03/10 00:09:33;;;;;;;1.70;1.40;;;12.40;96.60;;;;;;5008786;28;20687;-68
2023/03/10 00:11:59;;;;;;;2.10;1.33;;;12.10;96.60;;;;;;5008460;28;20206;-69
2023/03/10 00:14:25;;;;;;;2.37;1.33;;;12.20;96.90;;;;;;5009149;28;20702;-68
2023/03/10 00:16:50;;;;;;;1.93;1.60;;;12.30;96.90;;;;;;5008100;28;20183;-68
2023/03/10 00:19:16;;;;;;;1.90;1.47;;;12.30;96.90;;;;;;5006847;28;20214;-69
2023/03/10 00:21:44;;;;;;;3.00;1.80;;;12.10;96.80;;;;;;5008430;28;20198;-68
2023/03/10 00:24:10;;;;;;;3.25;1.48;;;12.20;96.90;;;;;;5007857;28;20183;-68
2023/03/10 00:26:37;;;;;;;3.73;2.03;;;12.20;96.70;;;;;;5007182;28;20710;-68
2023/03/10 00:29:03;;;;;;;2.40;1.50;;;12.30;97.00;;;;;;5008466;28;20947;-68
2023/03/10 00:31:30;;;;;;;3.38;1.77;;;12.10;96.30;;;;;;5007800;28;20652;-68
2023/03/10 00:33:57;;;;;;;3.45;1.70;;;12.10;95.90;;;;;;5007272;28;20224;-68
2023/03/10 00:36:25;;;;;;;2.95;1.65;;;12.10;95.80;;;;;;5008944;28;20196;-69
2023/03/10 00:38:53;;;;;;;2.67;1.35;;;12.20;95.70;;;;;;5006110;28;21097;-68
2023/03/10 00:41:25;;;;;;;1.50;1.10;;;12.30;95.80;;;;;;5008769;28;20254;-68
2023/03/10 00:43:51;;;;;;;2.97;1.63;;;12.30;96.00;;;;;;5007729;28;20660;-68
2023/03/10 00:46:17;;;;;;;1.90;1.25;;;12.20;96.30;;;;;;5008387;28;20223;-68
2023/03/10 00:48:43;;;;;;;3.08;1.50;;;12.20;96.40;;;;;;5003942;28;20203;-68
2023/03/10 00:51:09;;;;;;;1.65;1.25;;;11.90;96.40;;;;;;5008280;28;20185;-68
2023/03/10 00:53:36;;;;;;;2.97;1.93;;;11.90;96.80;;;;;;5008284;28;20269;-68
2023/03/10 00:56:07;;;;;;;2.05;1.20;;;12.10;96.90;;;;;;5004669;28;20449;-68
2023/03/10 00:58:33;;;;;;;1.45;1.17;;;12.10;97.10;;;;;;5005609;28;20203;-68
2023/03/10 01:01:00;;;;;;;2.40;1.38;;;11.90;97.40;;;;;;5005973;28;20193;-68
2023/03/10 01:03:27;;;;;;;4.00;1.45;;;12.20;97.70;;;;;;5004490;28;20190;-68
2023/03/10 01:05:54;;;;;;;1.88;1.15;;;11.90;97.70;;;;;;5004420;28;20197;-68
2023/03/10 01:08:20;;;;;;;1.67;1.05;;;11.90;97.70;;;;;;5007254;28;20186;-68
2023/03/10 01:10:46;;;;;;;1.58;1.33;;;12.20;98.00;;;;;;5006593;28;20217;-68
2023/03/10 01:13:13;;;;;;;2.50;1.37;;;11.50;97.70;;;;;;5007357;28;20215;-68
2023/03/10 01:15:39;;;;;;;3.45;1.30;;;12.00;98.00;;;;;;5006865;28;20183;-68
2023/03/10 01:18:06;;;;;;;2.17;1.30;;;12.00;98.10;;;;;;5006845;28;20817;-68
2023/03/10 01:20:33;;;;;;;1.50;1.40;;;12.00;98.10;;;;;;5007410;28;20916;-69
2023/03/10 01:22:59;;;;;;;2.00;1.40;;;11.90;98.20;;;;;;5008003;28;20213;-68
2023/03/10 01:25:26;;;;;;;1.80;1.10;;;12.20;98.90;;;;;;5003806;28;20195;-68
2023/03/10 01:27:51;;;;;;;1.27;1.00;;;11.70;98.50;;;;;;5007705;28;20190;-68
2023/03/10 01:30:17;;;;;;;2.23;2.03;;;11.70;98.90;;;;;;5008164;28;20268;-68
2023/03/10 01:32:43;;;;;;;2.53;1.30;;;11.50;99.00;;;;;;5006946;28;20323;-68
2023/03/10 01:35:09;;;;;;;3.63;1.77;;;11.60;99.10;;;;;;5010763;28;20229;-68
2023/03/10 01:37:35;;;;;;;1.88;1.25;;;11.90;99.20;;;;;;5009790;28;20182;-68
2023/03/10 01:40:03;;;;;;;2.10;1.30;;;11.60;99.00;;;;;;5004575;28;20199;-68
2023/03/10 01:42:30;;;;;;;3.08;1.60;;;11.90;99.00;;;;;;5011217;28;20243;-68
2023/03/10 01:45:28;;;;;;;1.92;1.00;;;11.80;98.80;;;;;;5011633;28;20185;-68
2023/03/10 01:47:54;;;;;;;2.25;1.30;;;11.70;98.60;;;;;;5011485;28;20561;-68
2023/03/10 01:50:20;;;;;;;1.40;1.20;;;11.70;98.50;;;;;;5010167;28;20225;-68
2023/03/10 01:52:55;;;;;;;1.38;1.20;;;11.70;98.50;;;;;;5008648;28;20477;-68
2023/03/10 01:55:29;;;;;;;2.65;1.38;;;11.40;98.20;;;;;;5008333;28;20346;-68
2023/03/10 01:57:56;;;;;;;1.75;1.10;;;11.80;98.20;;;;;;5012507;28;20194;-69
2023/03/10 02:00:24;;;;;;;2.50;1.40;;;11.80;98.20;;;;;;5009412;28;20294;-68
2023/03/10 02:03:08;;;;;;;1.85;1.10;;;11.80;98.40;;;;;;5010971;28;20272;-68
2023/03/10 02:05:42;;;;;;;1.85;1.40;;;11.70;98.30;;;;;;5008542;28;20229;-68
2023/03/10 02:08:08;;;;;;;1.40;1.20;;;11.80;98.50;;;;;;5009833;28;20194;-68
2023/03/10 02:10:34;;;;;;;1.50;1.08;;;11.40;98.50;;;;;;5008709;28;20202;-68
2023/03/10 02:13:00;;;;;;;1.85;1.00;;;11.60;98.70;;;;;;5010930;28;20213;-68
2023/03/10 02:15:26;;;;;;;2.17;1.00;;;11.70;98.90;;;;;;5040398;28;20683;-68
2023/03/10 02:17:53;;;;;;;2.97;1.08;;;11.60;99.20;;;;;;5009734;28;20834;-68
2023/03/10 02:20:39;;;;;;;1.88;1.13;;;11.60;99.60;;;;;;5010933;28;20675;-68
2023/03/10 02:23:06;;;;;;;1.38;1.05;;;11.70;99.80;;;;;;5009187;28;20215;-68
2023/03/10 02:25:45;;;;;;;1.98;1.00;;;11.50;99.90;;;;;;5022998;28;20186;-68
2023/03/10 02:28:11;;;;;;;1.42;1.10;;;11.80;99.90;;;;;;5010702;28;20237;-68
2023/03/10 02:30:42;;;;;;;1.40;1.30;;;11.80;99.90;;;;;;5011094;28;20539;-68
2023/03/10 02:33:15;;;;;;;1.92;1.10;;;11.70;99.90;;;;;;5009030;28;20693;-68
2023/03/10 02:35:41;;;;;;;1.40;0.80;;;11.60;99.90;;;;;;5011451;28;20696;-68
2023/03/10 02:38:06;;;;;;;1.10;1.00;;;11.50;99.90;;;;;;5010224;28;20190;-68
2023/03/10 02:40:36;;;;;;;1.27;1.00;;;11.50;99.90;;;;;;5005671;28;20206;-68
2023/03/10 02:43:30;;;;;;;0.93;0.82;;;11.70;99.90;;;;;;5010008;28;20186;-68
2023/03/10 02:45:59;;;;;;;1.95;0.90;;;11.60;99.90;;;;;;5020384;28;20194;-68
2023/03/10 02:48:34;;;;;;;1.65;0.90;;;11.50;99.90;;;;;;5010484;28;20236;-68
2023/03/10 02:51:03;;;;;;;1.00;0.90;;;11.50;99.90;;;;;;5009301;28;20490;-68
2023/03/10 02:53:29;;;;;;;1.67;1.20;;;11.30;99.90;;;;;;5008883;28;20211;-68
2023/03/10 02:55:55;;;;;;;1.43;0.90;;;11.60;99.90;;;;;;5009421;28;20193;-68
2023/03/10 02:58:23;;;;;;;1.17;1.10;;;11.50;99.90;;;;;;5009839;28;20971;-68
2023/03/10 03:00:49;;;;;;;0.85;0.60;;;11.50;99.90;;;;;;5009488;28;20198;-68
2023/03/10 03:03:18;;;;;;;1.33;0.80;;;11.50;99.90;;;;;;5008356;28;20289;-68
2023/03/10 03:05:44;;;;;;;1.95;0.88;;;11.30;99.90;;;;;;5009757;28;20221;-68
2023/03/10 03:08:10;;;;;;;1.40;0.73;;;11.40;99.90;;;;;;5009113;28;20660;-68
2023/03/10 03:10:36;;;;;;;1.87;1.00;;;11.20;99.90;;;;;;5006020;28;20990;-68
2023/03/10 03:13:03;;;;;;;1.42;0.80;;;11.00;99.90;;;;;;5010928;28;20464;-68
2023/03/10 03:15:29;;;;;;;1.60;0.70;;;11.30;99.90;;;;;;5010251;28;20190;-68
2023/03/10 03:17:57;;;;;;;2.27;1.00;;;11.10;99.90;;;;;;5008605;28;20198;-68
2023/03/10 03:20:23;;;;;;;1.25;0.80;;;11.10;99.90;;;;;;5010103;28;20461;-69
2023/03/10 03:22:49;;;;;;;2.00;0.90;;;11.10;99.90;;;;;;5008936;28;20213;-68
2023/03/10 03:25:17;;;;;;;1.93;0.90;;;11.20;99.90;;;;;;5008790;28;20217;-68
2023/03/10 03:27:44;;;;;;;1.30;0.73;;;11.20;99.90;;;;;;5009264;28;20327;-68
2023/03/10 03:30:14;;;;;;;0.77;0.70;;;11.30;99.90;;;;;;5006121;28;20238;-68
2023/03/10 03:32:40;;;;;;;1.33;0.93;;;11.00;99.90;;;;;;5009515;28;20915;-68
2023/03/10 03:35:11;;;;;;;1.23;0.80;;;11.10;99.90;;;;;;5007849;28;20268;-68
2023/03/10 03:37:37;;;;;;;1.23;0.80;;;11.10;99.90;;;;;;5008820;28;20542;-68
2023/03/10 03:40:22;;;;;;;0.90;0.70;;;11.30;99.90;;;;;;5006526;28;20291;-68
2023/03/10 03:42:50;;;;;;;1.02;0.70;;;11.10;99.90;;;;;;5010633;28;20205;-69
2023/03/10 03:45:18;;;;;;;1.27;0.68;;;11.20;99.90;;;;;;5008090;28;20653;-68
2023/03/10 03:47:44;;;;;;;0.70;0.60;;;11.40;99.90;;;;;;5009299;28;20271;-68
2023/03/10 03:50:12;;;;;;;1.10;0.65;;;10.90;99.90;;;;;;5007357;28;20221;-68
2023/03/10 03:52:38;;;;;;;0.70;0.60;;;11.00;99.90;;;;;;5009160;28;20710;-68
2023/03/10 03:55:05;;;;;;;1.40;0.90;;;10.80;99.90;;;;;;5007840;28;20178;-68
2023/03/10 03:57:31;;;;;;;1.00;0.60;;;10.80;99.90;;;;;;5005060;28;20240;-68
2023/03/10 03:59:57;;;;;;;0.70;0.50;;;10.70;99.90;;;;;;5006787;28;20205;-68
2023/03/10 04:02:23;;;;;;;2.10;0.73;;;10.40;99.90;;;;;;5007149;28;20184;-68
2023/03/10 04:04:49;;;;;;;1.10;0.60;;;10.80;99.90;;;;;;5008534;28;20189;-69
2023/03/10 04:07:15;;;;;;;6.50;0.97;;;10.80;99.90;;;;;;5008863;28;20445;-68
2023/03/10 04:09:42;;;;;;;0.68;0.50;;;10.80;99.90;;;;;;5006811;28;20484;-68
2023/03/10 04:12:08;;;;;;;0.65;0.60;;;10.90;99.90;;;;;;5008439;28;20226;-68
2023/03/10 04:14:35;;;;;;;0.90;0.57;;;11.00;99.90;;;;;;5009105;28;20183;-68
2023/03/10 04:17:01;;;;;;;0.60;0.50;;;11.00;99.90;;;;;;5007187;28;20277;-68
2023/03/10 04:19:26;;;;;;;0.70;0.60;;;10.80;99.90;;;;;;5007774;28;20205;-68
2023/03/10 04:21:52;;;;;;;0.80;0.67;;;11.40;99.90;;;;;;5008625;28;20694;-68
2023/03/10 04:24:18;;;;;;;0.70;0.60;;;10.80;99.90;;;;;;5008104;28;20199;-67
2023/03/10 04:26:44;;;;;;;0.60;0.50;;;10.80;99.90;;;;;;5007196;28;20273;-68
2023/03/10 04:29:09;;;;;;;0.90;0.60;;;11.00;99.90;;;;;;5006438;28;20710;-68
2023/03/10 04:31:35;;;;;;;0.70;0.60;;;11.00;99.90;;;;;;5008918;28;20268;-69
2023/03/10 04:34:01;;;;;;;1.23;0.70;;;11.00;99.90;;;;;;5006901;28;20218;-69
2023/03/10 04:36:26;;;;;;;1.53;0.70;;;10.90;99.90;;;;;;5008528;28;20716;-68
2023/03/10 04:38:52;;;;;;;1.00;0.60;;;10.90;99.90;;;;;;5007238;28;20461;-69
2023/03/10 04:41:18;;;;;;;0.70;0.60;;;10.20;99.90;;;;;;5006056;28;20188;-68
2023/03/10 04:43:43;;;;;;;0.70;0.60;;;11.00;99.90;;;;;;5008400;28;20190;-68
2023/03/10 04:46:09;;;;;;;0.70;0.60;;;10.70;99.90;;;;;;5005360;28;20194;-68
2023/03/10 04:48:35;;;;;;;1.13;0.80;;;10.90;99.90;;;;;;5009309;28;20601;-68
2023/03/10 04:51:04;;;;;;;1.03;0.70;;;10.80;99.90;;;;;;5007383;28;20222;-68
2023/03/10 04:53:33;;;;;;;2.00;0.70;;;10.90;99.90;;;;;;5007755;28;20490;-68
2023/03/10 04:56:00;;;;;;;1.23;0.75;;;10.90;99.90;;;;;;5007224;28;20193;-68
2023/03/10 04:58:26;;;;;;;1.20;1.10;;;11.20;99.90;;;;;;5008304;28;20648;-68
2023/03/10 05:00:52;;;;;;;1.07;0.97;;;11.00;99.90;;;;;;5007827;28;20192;-68
2023/03/10 05:03:18;;;;;;;1.17;0.80;;;11.10;99.90;;;;;;5005786;28;20948;-69
2023/03/10 05:05:43;;;;;;;1.17;0.70;;;11.10;99.90;;;;;;5008397;28;20451;-69
2023/03/10 05:08:09;;;;;;;0.80;0.67;;;11.20;99.90;;;;;;5008521;28;20202;-68
2023/03/10 05:10:38;;;;;;;1.85;0.80;;;11.10;99.90;;;;;;5008351;28;20240;-68
2023/03/10 05:13:04;;;;;;;2.15;0.80;;;10.90;99.90;;;;;;5012236;28;20213;-68
2023/03/10 05:15:33;;;;;;;0.90;0.73;;;11.10;99.90;;;;;;5011962;28;20177;-68
2023/03/10 05:17:59;;;;;;;1.25;0.65;;;10.90;99.90;;;;;;5022274;28;20186;-68
2023/03/10 05:20:24;;;;;;;1.90;1.00;;;10.90;99.90;;;;;;5011514;28;20263;-68
2023/03/10 05:22:50;;;;;;;1.33;0.80;;;11.20;99.90;;;;;;5011808;28;20209;-69
2023/03/10 05:25:15;;;;;;;1.43;1.00;;;10.90;99.90;;;;;;5006237;28;20710;-68
2023/03/10 05:27:41;;;;;;;0.90;0.67;;;11.00;99.90;;;;;;5010567;28;20193;-68
2023/03/10 05:30:09;;;;;;;0.90;0.70;;;10.80;99.90;;;;;;5007882;28;20360;-69
2023/03/10 05:32:35;;;;;;;1.13;0.80;;;10.70;99.90;;;;;;5010452;28;20304;-68
2023/03/10 05:35:03;;;;;;;1.05;0.80;;;10.70;99.90;;;;;;5011814;28;20317;-68
2023/03/10 05:37:29;;;;;;;1.80;1.20;;;10.00;99.90;;;;;;5011558;28;20223;-68
2023/03/10 05:39:54;;;;;;;1.40;0.90;;;10.60;99.90;;;;;;5008784;28;20241;-69
2023/03/10 05:42:21;;;;;;;2.07;1.30;;;10.30;99.90;;;;;;5011242;28;20546;-68
2023/03/10 05:44:46;;;;;;;1.10;0.80;;;10.40;99.90;;;;;;5011841;28;20297;-68
2023/03/10 05:47:13;;;;;;;2.00;1.03;;;10.30;99.90;;;;;;5009777;28;20276;-69
2023/03/10 05:49:39;;;;;;;5.93;1.50;;;10.30;99.90;;;;;;5011846;28;20220;-69
2023/03/10 05:52:05;;;;;;;2.70;1.00;;;10.60;99.90;;;;;;5010769;28;20213;-69
2023/03/10 05:54:31;;;;;;;1.10;1.00;;;10.60;99.90;;;;;;5009130;28;20258;-69
2023/03/10 05:56:56;;;;;;;1.77;1.00;;;10.30;99.90;;;;;;5011487;28;20181;-69
2023/03/10 05:59:22;;;;;;;1.17;1.00;;;10.70;99.90;;;;;;5010766;28;20251;-69
2023/03/10 06:01:47;;;;;;;2.80;1.00;;;10.70;99.90;;;;;;5010820;28;20707;-70
2023/03/10 06:04:13;;;;;;;1.27;1.00;;;10.80;99.90;;;;;;5013834;28;20228;-67
2023/03/10 06:06:39;;;;;;;0.93;0.60;;;10.60;99.90;;;;;;5010458;28;20209;-67
2023/03/10 06:09:04;;;;;;;1.70;0.90;;;10.90;99.90;;;;;;5008651;28;20217;-67
2023/03/10 06:11:30;;;;;;;1.77;1.10;;;10.90;99.90;;;;;;5009146;28;20905;-66
2023/03/10 06:13:56;;;;;;;2.13;1.23;;;10.80;99.90;;;;;;5010870;28;20599;-67
2023/03/10 06:16:21;;;;;;;2.27;0.93;;;10.80;99.90;;;;;;5010324;28;20635;-65
2023/03/10 06:18:51;;;;;;;1.73;1.03;;;10.90;99.90;;;;;;5007354;28;20535;-67
2023/03/10 06:21:16;;;;;;;1.90;1.30;;;11.10;99.90;;;;;;5011156;28;20186;-67
2023/03/10 06:23:43;;;;;;;1.20;1.10;;;10.50;99.90;;;;;;5010807;28;20683;-67
2023/03/10 06:26:12;;;;;;;1.85;0.70;;;10.90;99.90;;;;;;5020698;28;20222;-69
2023/03/10 06:28:40;;;;;;;0.80;0.63;;;10.40;99.90;;;;;;5004957;28;20196;-69
2023/03/10 06:31:11;;;;;;;1.02;0.65;;;10.50;99.90;;;;;;5008715;28;20559;-69
2023/03/10 06:33:37;;;;;;;2.13;0.80;;;10.50;99.90;;;;;;5010094;28;20217;-74
2023/03/10 06:36:04;;;;;;;1.02;0.93;;;10.40;99.90;;;;;;5039716;28;20185;-74
2023/03/10 06:38:29;;;;;;;0.80;0.60;;;10.20;99.90;;;;;;5009106;28;20274;-72
2023/03/10 06:40:55;;;;;;;1.53;0.60;;;10.20;99.90;;;;;;5007830;28;20998;-72
2023/03/10 06:43:22;;;;;;;2.35;0.60;;;10.20;99.90;;;;;;5010832;28;20229;-72
2023/03/10 06:45:48;;;;;;;1.98;1.10;;;10.30;99.90;;;;;;5041790;28;20193;-70
2023/03/10 06:48:14;;;;;;;0.60;0.60;;;10.30;99.90;;;;;;5007037;28;20208;-72
2023/03/10 06:50:42;;;;;;;1.35;0.80;;;10.60;99.90;;;;;;5009770;28;20661;-68
2023/03/10 06:53:08;;;;;;;2.65;0.70;;;10.00;99.90;;;;;;5006514;28;20328;-68
2023/03/10 06:55:33;;;;;;;0.80;0.70;;;10.00;99.90;;;;;;5009395;28;20254;-67
2023/03/10 06:57:59;;;;;;;0.90;0.63;;;10.00;99.90;;;;;;5008530;28;20654;-68
2023/03/10 07:00:25;;;;;;;1.83;0.60;;;10.10;99.90;;;;;;5009806;28;20266;-71
2023/03/10 07:02:51;;;;;;;1.10;0.80;;;10.20;99.90;;;;;;5009303;28;20247;-69
2023/03/10 07:05:17;;;;;;;1.45;0.70;;;10.40;99.90;;;;;;5010573;28;20628;-69
2023/03/10 07:07:42;;;;;;;1.10;0.67;;;10.70;99.90;;;;;;5010351;28;20203;-69
2023/03/10 07:10:09;;;;;;;0.80;0.60;;;10.80;99.90;;;;;;5008971;28;20720;-69
2023/03/10 07:12:34;;;;;;;4.00;0.75;;;10.80;99.90;;;;;;5009791;28;20312;-69
2023/03/10 07:15:00;;;;;;;1.27;0.70;;;11.20;99.90;;;;;;5009800;28;20503;-76
2023/03/10 07:17:26;;;;;;;1.00;0.80;;;11.10;99.90;;;;;;5010682;28;20256;-76
2023/03/10 07:19:51;;;;;;;0.87;0.60;;;11.10;99.90;;;;;;5006025;28;20240;-76
2023/03/10 07:22:17;;;;;;;0.93;0.70;;;11.10;99.90;;;;;;5010054;28;20189;-76
2023/03/10 07:24:42;;;;;;;2.70;1.00;;;11.40;99.90;;;;;;5003018;28;20674;-75
2023/03/10 07:27:08;;;;;;;0.90;0.70;;;11.20;99.90;;;;;;5008567;28;20225;-73
2023/03/10 07:29:34;;;;;;;0.73;0.70;;;11.60;99.90;;;;;;5009524;28;20587;-78
2023/03/10 07:32:00;;;;;;;1.42;1.00;;;11.70;99.90;;;;;;5010294;28;20179;-70
2023/03/10 07:34:25;;;;;;;1.40;0.73;;;12.00;99.90;;;;;;5008583;28;20543;-68
2023/03/10 07:36:51;;;;;;;2.60;1.00;;;12.10;99.90;;;;;;5008060;28;20183;-69
2023/03/10 07:39:17;;;;;;;1.90;1.37;;;12.30;99.90;;;;;;5002517;28;20211;-70
2023/03/10 07:41:42;;;;;;;2.40;0.60;;;12.50;99.90;;;;;;5009215;28;20179;-70
2023/03/10 07:44:08;;;;;;;1.20;0.80;;;12.60;99.90;;;;;;5012518;28;20462;-70
2023/03/10 07:46:34;;;;;;;1.10;0.80;;;12.60;99.90;;;;;;5009704;28;20190;-69
2023/03/10 07:49:03;;;;;;;1.30;0.80;;;12.50;99.90;;;;;;5009301;28;20484;-70
2023/03/10 07:51:29;;;;;;;1.27;0.90;;;12.50;99.90;;;;;;5009588;28;20584;-69
2023/03/10 07:53:55;;;;;;;1.00;0.80;;;12.10;99.90;;;;;;5006920;28;20221;-69
2023/03/10 07:56:21;;;;;;;0.80;0.60;;;12.00;99.90;;;;;;5007511;28;20274;-69
2023/03/10 07:58:47;;;;;;;1.47;1.03;;;11.80;99.90;;;;;;5011238;28;20213;-69
2023/03/10 08:01:20;;;;;;;1.20;0.80;;;12.10;99.90;;;;;;5011190;28;20450;-69
2023/03/10 08:03:46;;;;;;;2.35;1.10;;;11.60;99.90;;;;;;5003309;28;20208;-74
2023/03/10 08:06:17;;;;;;;2.50;1.00;;;12.10;99.90;;;;;;5004035;28;20226;-68
2023/03/10 08:08:42;;;;;;;0.85;0.80;;;11.80;99.90;;;;;;5009120;28;20194;-69
2023/03/10 08:11:11;;;;;;;1.50;1.00;;;11.60;99.90;;;;;;5005066;28;20623;-68
2023/03/10 08:13:37;;;;;;;2.50;1.35;;;11.60;99.90;;;;;;5011323;28;20725;-68
2023/03/10 08:16:03;;;;;;;1.00;0.65;;;11.30;99.90;;;;;;5008545;28;20193;-67
2023/03/10 08:18:30;;;;;;;2.33;0.97;;;11.20;99.90;;;;;;5011162;28;20716;-69
2023/03/10 08:20:56;;;;;;;1.38;0.70;;;10.70;99.90;;;;;;5008963;28;20453;-68
2023/03/10 08:23:23;;;;;;;3.67;1.00;;;10.80;99.90;;;;;;5009536;28;20980;-67
2023/03/10 08:25:49;;;;;;;2.17;1.10;;;10.80;99.90;;;;;;5005312;28;20285;-68
2023/03/10 08:28:15;;;;;;;0.80;0.70;;;10.60;99.90;;;;;;5007844;28;20273;-69
2023/03/10 08:30:41;;;;;;;1.40;0.95;;;10.80;99.90;;;;;;5007303;28;20305;-70
2023/03/10 08:33:07;;;;;;;1.37;0.97;;;10.90;99.90;;;;;;5004312;28;20292;-67
2023/03/10 08:35:34;;;;;;;4.25;1.08;;;11.00;99.90;;;;;;5009052;28;20702;-68
2023/03/10 08:37:59;;;;;;;1.70;0.63;;;10.70;99.90;;;;;;5007955;28;20228;-69
2023/03/10 08:40:25;;;;;;;1.60;0.90;;;10.80;99.90;;;;;;5008825;28;20206;-76
2023/03/10 08:42:51;;;;;;;1.50;0.93;;;10.80;99.90;;;;;;5008042;28;20194;-71
2023/03/10 08:45:17;;;;;;;1.63;0.70;;;10.80;99.90;;;;;;5010713;28;20229;-69
2023/03/10 08:47:43;;;;;;;0.80;0.70;;;11.20;99.90;;;;;;5012539;28;20583;-71
2023/03/10 08:50:10;;;;;;;3.08;1.02;;;11.60;99.90;;;;;;5011144;28;20221;-72
2023/03/10 08:52:36;;;;;;;1.73;1.60;;;12.40;99.90;;;;;;5012449;28;20664;-70
2023/03/10 08:55:04;;;;;;;0.70;0.60;;;13.40;99.90;;;;;;5010192;28;20272;-71
2023/03/10 08:57:30;;;;;;;1.60;1.45;;;13.50;99.90;;;;;;5011373;28;20187;-71
2023/03/10 08:59:55;;;;;;;1.35;0.80;;;13.30;99.90;;;;;;5017843;28;20222;-74
2023/03/10 09:02:21;;;;;;;1.53;0.60;;;12.80;99.90;;;;;;5013975;28;20756;-68
2023/03/10 09:04:47;;;;;;;2.13;1.50;;;12.90;99.90;;;;;;5012210;28;20182;-69
2023/03/10 09:07:13;;;;;;;1.27;0.70;;;12.50;99.90;;;;;;5014251;28;20183;-69
2023/03/10 09:09:39;;;;;;;0.77;0.70;;;12.80;99.90;;;;;;5010371;28;20351;-69
2023/03/10 09:12:07;;;;;;;0.83;0.70;;;13.80;99.90;;;;;;5027626;28;20710;-69
2023/03/10 09:14:34;;;;;;;0.80;0.68;;;14.30;99.90;;;;;;5013171;28;20727;-69
2023/03/10 09:16:59;;;;;;;0.90;0.70;;;14.80;99.90;;;;;;5015605;28;20183;-69
2023/03/10 09:19:25;;;;;;;1.63;0.90;;;15.10;99.90;;;;;;5011643;28;20684;-71
2023/03/10 09:21:51;;;;;;;1.10;0.70;;;15.90;99.90;;;;;;5012291;28;20178;-70
2023/03/10 09:24:18;;;;;;;2.40;0.83;;;15.90;99.10;;;;;;5010111;28;20183;-70
2023/03/10 09:26:43;;;;;;;6.57;4.35;;;16.00;99.30;;;;;;5012001;28;20218;-71
2023/03/10 09:29:09;;;;;;;2.90;0.93;;;15.50;99.30;;;;;;5012710;28;20234;-71
2023/03/10 09:31:36;;;;;;;1.40;1.20;;;15.70;99.50;;;;;;5013522;28;20218;-71
2023/03/10 09:34:02;;;;;;;1.77;1.02;;;15.40;97.80;;;;;;5011073;28;20580;-73
2023/03/10 09:36:28;;;;;;;4.55;1.25;;;15.40;99.20;;;;;;5015345;28;20191;-73
2023/03/10 09:38:55;;;;;;;2.25;0.90;;;15.70;99.10;;;;;;5011265;28;20707;-70
2023/03/10 09:41:51;;;;;;;2.00;1.20;;;15.60;98.10;;;;;;5009031;28;20199;-69
2023/03/10 09:44:36;;;;;;;1.42;1.33;;;15.70;97.80;;;;;;5008607;28;20267;-68
2023/03/10 09:47:26;;;;;;;1.45;0.73;;;15.30;97.30;;;;;;5009338;28;20611;-69
2023/03/10 09:50:11;;;;;;;1.23;0.90;;;15.00;97.10;;;;;;5008274;28;20242;-69
2023/03/10 09:53:06;;;;;;;1.85;0.70;;;15.40;97.70;;;;;;5010981;28;20211;-70
2023/03/10 09:55:42;;;;;;;0.90;0.75;;;15.20;97.40;;;;;;5005598;28;20187;-70
2023/03/10 09:58:17;;;;;;;1.83;1.40;;;15.00;97.70;;;;;;5007236;28;20194;-70
2023/03/10 10:00:43;;;;;;;1.45;0.85;;;15.30;98.50;;;;;;5041701;28;20211;-71
2023/03/10 10:03:24;;;;;;;1.92;0.80;;;15.50;97.40;;;;;;5008978;28;20183;-67
2023/03/10 10:05:54;;;;;;;2.63;0.95;;;15.20;96.20;;;;;;5007484;28;20187;-71
2023/03/10 10:08:40;;;;;;;2.65;1.63;;;15.50;96.90;;;;;;5012297;28;20182;-72
2023/03/10 10:11:14;;;;;;;2.00;1.42;;;15.70;97.10;;;;;;5009440;28;20179;-72
2023/03/10 10:13:40;;;;;;;2.00;0.80;;;15.50;97.80;;;;;;5014068;28;20292;-67
2023/03/10 10:16:34;;;;;;;1.57;0.90;;;15.10;97.20;;;;;;5008855;28;20189;-67
2023/03/10 10:19:18;;;;;;;2.45;0.60;;;15.00;97.70;;;;;;5004780;28;20446;-69
2023/03/10 10:22:06;;;;;;;1.90;0.60;;;14.60;97.60;;;;;;5009710;28;20179;-71
2023/03/10 10:24:32;;;;;;;1.80;0.70;;;14.40;98.30;;;;;;5006046;28;20186;-71
2023/03/10 10:26:58;;;;;;;1.27;0.70;;;14.30;99.50;;;;;;5009894;28;20573;-70
2023/03/10 10:29:33;;;;;;;1.27;0.90;;;14.20;99.10;;;;;;5010568;28;20607;-68
2023/03/10 10:32:14;;;;;;;0.95;0.73;;;14.30;99.90;;;;;;5008327;28;20717;-68
2023/03/10 10:34:44;;;;;;;1.60;0.80;;;14.30;99.90;;;;;;5007664;28;20241;-69
2023/03/10 10:37:41;;;;;;;2.10;1.20;;;14.40;99.90;;;;;;5009397;28;20712;-74
2023/03/10 10:40:23;;;;;;;2.50;0.80;;;14.30;99.50;;;;;;5008018;28;20607;-71
2023/03/10 10:42:54;;;;;;;1.42;0.80;;;13.90;99.90;;;;;;5010812;28;20178;-70
2023/03/10 10:45:32;;;;;;;1.55;0.70;;;13.70;99.60;;;;;;5042887;28;20274;-67
2023/03/10 10:47:57;;;;;;;2.55;0.88;;;13.50;99.90;;;;;;5006671;28;20229;-67
2023/03/10 10:50:26;;;;;;;1.67;0.80;;;13.30;99.90;;;;;;5005954;28;20692;-67
2023/03/10 10:53:25;;;;;;;3.83;0.93;;;13.30;99.90;;;;;;5006494;28;20215;-67
2023/03/10 10:56:11;;;;;;;3.58;1.00;;;13.20;99.90;;;;;;5007444;28;20179;-67
2023/03/10 10:58:39;;;;;;;1.70;1.02;;;13.40;99.90;;;;;;5008574;28;20175;-67
2023/03/10 11:01:06;;;;;;;1.20;0.85;;;13.50;99.90;;;;;;5003673;28;20757;-67
2023/03/10 11:03:37;;;;;;;2.00;0.80;;;13.60;99.90;;;;;;5007523;28;20191;-67
2023/03/10 11:06:27;;;;;;;2.15;0.90;;;13.70;99.90;;;;;;5008655;28;20237;-67
2023/03/10 11:09:22;;;;;;;2.55;0.70;;;13.60;99.90;;;;;;5007450;28;20226;-67
2023/03/10 11:11:54;;;;;;;2.50;0.85;;;13.30;99.90;;;;;;5008887;28;20675;-67
2023/03/10 11:14:34;;;;;;;1.92;0.80;;;13.50;99.90;;;;;;5007888;28;20191;-67
2023/03/10 11:17:05;;;;;;;1.73;0.95;;;13.50;99.90;;;;;;5007965;28;20183;-71
2023/03/10 11:19:59;;;;;;;1.48;0.82;;;13.80;99.90;;;;;;5022164;28;20704;-67
2023/03/10 11:22:40;;;;;;;2.05;0.80;;;13.60;99.90;;;;;;5012709;28;20679;-71
2023/03/10 11:25:28;;;;;;;2.17;0.95;;;13.60;99.90;;;;;;5025792;28;20187;-74
2023/03/10 11:28:15;;;;;;;1.77;0.90;;;14.00;99.90;;;;;;5007012;28;20183;-75
2023/03/10 11:31:04;;;;;;;1.10;0.82;;;14.10;99.90;;;;;;5009719;28;20222;-69
2023/03/10 11:33:49;;;;;;;0.80;0.70;;;14.10;99.60;;;;;;5007083;28;20215;-70
2023/03/10 11:36:29;;;;;;;1.45;1.15;;;13.80;99.40;;;;;;5039594;28;20232;-71
2023/03/10 11:39:15;;;;;;;3.15;1.20;;;14.20;99.90;;;;;;5003960;28;20222;-71
2023/03/10 11:41:47;;;;;;;1.25;0.75;;;14.30;99.90;;;;;;5008634;28;20199;-71
2023/03/10 11:44:52;;;;;;;1.25;0.98;;;14.10;99.90;;;;;;5007260;28;21089;-71
2023/03/10 11:47:28;;;;;;;1.20;0.95;;;14.40;99.20;;;;;;5005167;28;20221;-69
2023/03/10 11:50:09;;;;;;;1.42;0.80;;;14.50;99.60;;;;;;5006726;28;20209;-70
2023/03/10 11:52:36;;;;;;;1.55;0.60;;;14.60;99.60;;;;;;5008340;28;20214;-67
2023/03/10 11:55:10;;;;;;;1.40;0.82;;;14.20;99.30;;;;;;5003985;28;20229;-67
2023/03/10 11:57:43;;;;;;;0.95;0.73;;;14.30;99.80;;;;;;5007538;28;20245;-67
2023/03/10 12:00:31;;;;;;;1.13;0.68;;;14.50;99.90;;;;;;5007566;28;20846;-67
2023/03/10 12:03:17;;;;;;;3.85;1.00;;;14.30;99.90;;;;;;5006268;28;20198;-68
2023/03/10 12:05:49;;;;;;;1.88;0.85;;;14.10;99.90;;;;;;5007191;28;21076;-67
2023/03/10 12:08:17;;;;;;;2.10;0.90;;;14.00;99.90;;;;;;5022070;28;20280;-67
2023/03/10 12:10:43;;;;;;;1.75;0.80;;;13.50;99.90;;;;;;5006330;28;20238;-67
2023/03/10 12:13:26;;;;;;;1.38;0.70;;;13.70;99.90;;;;;;5008557;28;20214;-67
2023/03/10 12:15:55;;;;;;;1.77;0.90;;;13.40;99.90;;;;;;5005958;28;20195;-68
2023/03/10 12:18:21;;;;;;;2.13;0.65;;;13.40;99.90;;;;;;5007045;28;20186;-68
2023/03/10 12:21:17;;;;;;;1.60;0.93;;;14.00;99.90;;;;;;5003300;28;20198;-68
2023/03/10 12:23:48;;;;;;;1.90;1.00;;;14.50;99.60;;;;;;5006865;28;20445;-75
2023/03/10 12:26:14;;;;;;;1.33;0.70;;;14.70;98.60;;;;;;5008093;28;20186;-74
2023/03/10 12:28:40;;;;;;;1.47;0.70;;;14.70;97.50;;;;;;5024796;28;20197;-68
2023/03/10 12:31:31;;;;;;;1.20;0.77;;;14.50;97.10;;;;;;5005125;28;20468;-67
2023/03/10 12:34:23;;;;;;;0.90;0.60;;;14.50;98.00;;;;;;5006571;28;20250;-68
2023/03/10 12:36:52;;;;;;;1.23;0.70;;;14.50;97.40;;;;;;5004153;28;20260;-70
2023/03/10 12:39:26;;;;;;;0.73;0.70;;;14.50;96.90;;;;;;5001606;28;20302;-69
2023/03/10 12:41:56;;;;;;;0.80;0.60;;;14.40;97.40;;;;;;5003770;28;20240;-70
2023/03/10 12:44:27;;;;;;;1.05;0.60;;;14.00;97.70;;;;;;5008054;28;20233;-71
2023/03/10 12:47:08;;;;;;;1.17;0.60;;;14.10;98.50;;;;;;5007893;28;20190;-70
2023/03/10 12:49:40;;;;;;;1.85;0.70;;;14.20;98.20;;;;;;5002896;28;20310;-70
2023/03/10 12:52:28;;;;;;;1.25;0.90;;;14.30;98.10;;;;;;4996478;28;20240;-70
2023/03/10 12:55:20;;;;;;;2.00;1.80;;;14.20;98.50;;;;;;5005399;28;20183;-70
2023/03/10 12:57:53;;;;;;;0.80;0.70;;;14.30;98.90;;;;;;5006897;28;20183;-69
2023/03/10 13:00:40;;;;;;;1.35;0.80;;;14.00;99.10;;;;;;5018294;28;20206;-70
2023/03/10 13:03:15;;;;;;;1.17;0.60;;;13.80;99.40;;;;;;5038077;28;20645;-70